sensor_id;sensor_type;location;lat;lon;timestamp;temperature;humidity
21807;DHT22;11065;50.786;7.840;2023-02-22T00:00:45;9.10;49.70
21807;DHT22;11065;50.786;7.840;2023-02-22T00:03:17;9.20;49.70
21807;DHT22;11065;50.786;7.840;2023-02-22T00:05:52;9.20;49.70
21807;DHT22;11065;50.786;7.840;2023-02-22T00:08:22;9.20;49.70
21807;DHT22;11065;50.786;7.840;2023-02-22T00:10:51;9.20;49.70
21807;DHT22;11065;50.786;7.840;2023-02-22T00:13:19;9.20;49.80
21807;DHT22;11065;50.786;7.840;2023-02-22T00:15:49;9.20;49.80
21807;DHT22;11065;50.786;7.840;2023-02-22T00:18:18;9.20;49.70
21807;DHT22;11065;50.786;7.840;2023-02-22T00:20:47;9.20;49.70
21807;DHT22;11065;50.786;7.840;2023-02-22T00:23:18;9.20;49.70
21807;DHT22;11065;50.786;7.840;2023-02-22T00:25:48;9.20;49.80
21807;DHT22;11065;50.786;7.840;2023-02-22T00:28:17;9.20;49.90
21807;DHT22;11065;50.786;7.840;2023-02-22T00:30:45;9.20;49.90
21807;DHT22;11065;50.786;7.840;2023-02-22T00:33:16;9.10;49.80
21807;DHT22;11065;50.786;7.840;2023-02-22T00:35:45;9.10;49.90
21807;DHT22;11065;50.786;7.840;2023-02-22T00:38:15;9.10;49.90
21807;DHT22;11065;50.786;7.840;2023-02-22T00:40:43;9.10;50.00
21807;DHT22;11065;50.786;7.840;2023-02-22T00:43:12;9.10;50.00
21807;DHT22;11065;50.786;7.840;2023-02-22T00:45:41;9.00;50.00
21807;DHT22;11065;50.786;7.840;2023-02-22T00:48:09;9.00;50.00
21807;DHT22;11065;50.786;7.840;2023-02-22T00:50:39;9.00;50.00
21807;DHT22;11065;50.786;7.840;2023-02-22T00:53:07;9.00;50.00
21807;DHT22;11065;50.786;7.840;2023-02-22T00:55:37;9.00;49.90
21807;DHT22;11065;50.786;7.840;2023-02-22T00:58:05;9.00;49.90
21807;DHT22;11065;50.786;7.840;2023-02-22T01:00:36;9.00;49.90
21807;DHT22;11065;50.786;7.840;2023-02-22T01:03:04;8.90;49.80
21807;DHT22;11065;50.786;7.840;2023-02-22T01:05:33;8.90;49.80
21807;DHT22;11065;50.786;7.840;2023-02-22T01:08:06;8.90;49.80
21807;DHT22;11065;50.786;7.840;2023-02-22T01:10:35;8.90;49.80
21807;DHT22;11065;50.786;7.840;2023-02-22T01:13:04;8.90;49.80
21807;DHT22;11065;50.786;7.840;2023-02-22T01:15:37;8.90;49.70
21807;DHT22;11065;50.786;7.840;2023-02-22T01:18:06;8.90;49.70
21807;DHT22;11065;50.786;7.840;2023-02-22T01:20:35;8.90;49.70
21807;DHT22;11065;50.786;7.840;2023-02-22T01:23:05;8.80;49.70
21807;DHT22;11065;50.786;7.840;2023-02-22T01:25:34;8.80;49.70
21807;DHT22;11065;50.786;7.840;2023-02-22T01:28:04;8.80;49.70
21807;DHT22;11065;50.786;7.840;2023-02-22T01:30:34;8.80;49.70
21807;DHT22;11065;50.786;7.840;2023-02-22T01:33:05;8.70;49.80
21807;DHT22;11065;50.786;7.840;2023-02-22T01:35:36;8.70;49.80
21807;DHT22;11065;50.786;7.840;2023-02-22T01:38:06;8.70;49.80
21807;DHT22;11065;50.786;7.840;2023-02-22T01:40:36;8.70;49.90
21807;DHT22;11065;50.786;7.840;2023-02-22T01:43:14;8.70;49.90
21807;DHT22;11065;50.786;7.840;2023-02-22T01:45:49;8.70;50.20
21807;DHT22;11065;50.786;7.840;2023-02-22T01:48:23;8.60;50.10
21807;DHT22;11065;50.786;7.840;2023-02-22T01:50:54;8.60;50.10
21807;DHT22;11065;50.786;7.840;2023-02-22T01:53:28;8.60;50.20
21807;DHT22;11065;50.786;7.840;2023-02-22T01:55:58;8.60;50.30
21807;DHT22;11065;50.786;7.840;2023-02-22T01:58:29;8.60;50.30
21807;DHT22;11065;50.786;7.840;2023-02-22T02:00:57;8.60;50.40
21807;DHT22;11065;50.786;7.840;2023-02-22T02:03:29;8.60;50.30
21807;DHT22;11065;50.786;7.840;2023-02-22T02:06:02;8.60;50.40
21807;DHT22;11065;50.786;7.840;2023-02-22T02:08:38;8.60;50.30
21807;DHT22;11065;50.786;7.840;2023-02-22T02:11:08;8.60;50.30
21807;DHT22;11065;50.786;7.840;2023-02-22T02:13:37;8.60;50.10
21807;DHT22;11065;50.786;7.840;2023-02-22T02:16:05;8.60;50.10
21807;DHT22;11065;50.786;7.840;2023-02-22T02:18:33;8.50;50.10
21807;DHT22;11065;50.786;7.840;2023-02-22T02:21:45;8.50;50.10
21807;DHT22;11065;50.786;7.840;2023-02-22T02:27:21;8.50;50.60
21807;DHT22;11065;50.786;7.840;2023-02-22T02:33:01;8.50;50.50
21807;DHT22;11065;50.786;7.840;2023-02-22T02:35:38;8.50;50.30
21807;DHT22;11065;50.786;7.840;2023-02-22T02:38:18;8.50;50.30
21807;DHT22;11065;50.786;7.840;2023-02-22T02:40:56;8.40;50.20
21807;DHT22;11065;50.786;7.840;2023-02-22T02:43:30;8.50;50.30
21807;DHT22;11065;50.786;7.840;2023-02-22T02:46:03;8.40;50.20
21807;DHT22;11065;50.786;7.840;2023-02-22T02:48:38;8.40;50.70
21807;DHT22;11065;50.786;7.840;2023-02-22T02:51:10;8.40;50.70
21807;DHT22;11065;50.786;7.840;2023-02-22T02:53:43;8.40;50.20
21807;DHT22;11065;50.786;7.840;2023-02-22T02:56:13;8.40;50.30
21807;DHT22;11065;50.786;7.840;2023-02-22T02:58:44;8.40;50.20
21807;DHT22;11065;50.786;7.840;2023-02-22T03:01:22;8.30;50.20
21807;DHT22;11065;50.786;7.840;2023-02-22T03:10:20;8.30;50.60
21807;DHT22;11065;50.786;7.840;2023-02-22T03:12:59;8.30;50.50
21807;DHT22;11065;50.786;7.840;2023-02-22T03:15:36;8.30;50.40
21807;DHT22;11065;50.786;7.840;2023-02-22T03:18:14;8.30;50.40
21807;DHT22;11065;50.786;7.840;2023-02-22T03:20:51;8.30;50.40
21807;DHT22;11065;50.786;7.840;2023-02-22T03:23:23;8.30;50.90
21807;DHT22;11065;50.786;7.840;2023-02-22T03:25:58;8.30;50.30
21807;DHT22;11065;50.786;7.840;2023-02-22T03:28:30;8.30;50.30
21807;DHT22;11065;50.786;7.840;2023-02-22T03:31:01;8.20;50.20
21807;DHT22;11065;50.786;7.840;2023-02-22T03:33:34;8.20;50.20
21807;DHT22;11065;50.786;7.840;2023-02-22T03:36:10;8.20;50.20
21807;DHT22;11065;50.786;7.840;2023-02-22T03:38:41;8.20;50.30
21807;DHT22;11065;50.786;7.840;2023-02-22T03:41:12;8.20;50.30
21807;DHT22;11065;50.786;7.840;2023-02-22T03:43:45;8.20;50.40
21807;DHT22;11065;50.786;7.840;2023-02-22T03:46:16;8.20;50.40
21807;DHT22;11065;50.786;7.840;2023-02-22T03:48:50;8.20;50.60
21807;DHT22;11065;50.786;7.840;2023-02-22T03:51:22;8.10;50.60
21807;DHT22;11065;50.786;7.840;2023-02-22T03:53:56;8.10;50.60
21807;DHT22;11065;50.786;7.840;2023-02-22T03:56:34;8.10;50.50
21807;DHT22;11065;50.786;7.840;2023-02-22T03:59:07;8.20;50.60
21807;DHT22;11065;50.786;7.840;2023-02-22T04:01:36;8.00;50.50
21807;DHT22;11065;50.786;7.840;2023-02-22T04:04:05;8.00;50.50
21807;DHT22;11065;50.786;7.840;2023-02-22T04:06:36;8.00;50.50
21807;DHT22;11065;50.786;7.840;2023-02-22T04:09:04;8.00;50.60
21807;DHT22;11065;50.786;7.840;2023-02-22T04:11:34;8.00;50.60
21807;DHT22;11065;50.786;7.840;2023-02-22T04:14:02;8.00;50.60
21807;DHT22;11065;50.786;7.840;2023-02-22T04:16:30;7.90;50.60
21807;DHT22;11065;50.786;7.840;2023-02-22T04:18:58;7.90;50.70
21807;DHT22;11065;50.786;7.840;2023-02-22T04:21:27;7.90;50.80
21807;DHT22;11065;50.786;7.840;2023-02-22T04:23:57;7.90;50.80
21807;DHT22;11065;50.786;7.840;2023-02-22T04:26:25;7.90;50.80
21807;DHT22;11065;50.786;7.840;2023-02-22T04:28:55;7.90;50.80
21807;DHT22;11065;50.786;7.840;2023-02-22T04:31:27;7.90;50.90
21807;DHT22;11065;50.786;7.840;2023-02-22T04:33:57;7.90;51.00
21807;DHT22;11065;50.786;7.840;2023-02-22T04:36:29;7.80;51.00
21807;DHT22;11065;50.786;7.840;2023-02-22T04:39:00;7.90;51.00
21807;DHT22;11065;50.786;7.840;2023-02-22T04:41:29;7.90;51.00
21807;DHT22;11065;50.786;7.840;2023-02-22T04:43:58;7.80;51.00
21807;DHT22;11065;50.786;7.840;2023-02-22T04:46:26;7.80;51.10
21807;DHT22;11065;50.786;7.840;2023-02-22T04:48:55;7.80;51.20
21807;DHT22;11065;50.786;7.840;2023-02-22T04:51:26;7.80;51.30
21807;DHT22;11065;50.786;7.840;2023-02-22T04:54:10;7.80;51.30
21807;DHT22;11065;50.786;7.840;2023-02-22T04:56:43;7.80;51.50
21807;DHT22;11065;50.786;7.840;2023-02-22T04:59:11;7.80;51.50
21807;DHT22;11065;50.786;7.840;2023-02-22T05:01:42;7.80;51.60
21807;DHT22;11065;50.786;7.840;2023-02-22T05:04:10;7.80;51.70
21807;DHT22;11065;50.786;7.840;2023-02-22T05:06:38;7.80;51.70
21807;DHT22;11065;50.786;7.840;2023-02-22T05:09:06;7.80;51.80
21807;DHT22;11065;50.786;7.840;2023-02-22T05:11:36;7.70;51.90
21807;DHT22;11065;50.786;7.840;2023-02-22T05:14:04;7.80;51.90
21807;DHT22;11065;50.786;7.840;2023-02-22T05:16:32;7.80;51.90
21807;DHT22;11065;50.786;7.840;2023-02-22T05:19:00;7.80;51.90
21807;DHT22;11065;50.786;7.840;2023-02-22T05:21:28;7.80;51.90
21807;DHT22;11065;50.786;7.840;2023-02-22T05:23:56;7.80;51.90
21807;DHT22;11065;50.786;7.840;2023-02-22T05:26:24;7.90;51.90
21807;DHT22;11065;50.786;7.840;2023-02-22T05:28:54;7.90;51.90
21807;DHT22;11065;50.786;7.840;2023-02-22T05:31:22;7.90;51.90
21807;DHT22;11065;50.786;7.840;2023-02-22T05:33:50;7.80;51.80
21807;DHT22;11065;50.786;7.840;2023-02-22T05:36:18;7.80;51.90
21807;DHT22;11065;50.786;7.840;2023-02-22T05:38:46;7.80;51.90
21807;DHT22;11065;50.786;7.840;2023-02-22T05:41:14;7.90;52.00
21807;DHT22;11065;50.786;7.840;2023-02-22T05:43:42;7.80;52.00
21807;DHT22;11065;50.786;7.840;2023-02-22T05:46:12;7.80;52.20
21807;DHT22;11065;50.786;7.840;2023-02-22T05:48:41;7.80;52.20
21807;DHT22;11065;50.786;7.840;2023-02-22T05:51:09;7.80;52.20
21807;DHT22;11065;50.786;7.840;2023-02-22T05:53:37;7.80;52.30
21807;DHT22;11065;50.786;7.840;2023-02-22T05:56:05;7.80;52.40
21807;DHT22;11065;50.786;7.840;2023-02-22T05:58:35;7.80;52.50
21807;DHT22;11065;50.786;7.840;2023-02-22T06:01:03;7.80;52.50
21807;DHT22;11065;50.786;7.840;2023-02-22T06:03:33;7.80;52.60
21807;DHT22;11065;50.786;7.840;2023-02-22T06:06:02;7.80;52.60
21807;DHT22;11065;50.786;7.840;2023-02-22T06:08:31;7.80;52.70
21807;DHT22;11065;50.786;7.840;2023-02-22T06:10:59;7.80;52.70
21807;DHT22;11065;50.786;7.840;2023-02-22T06:13:27;7.90;52.70
21807;DHT22;11065;50.786;7.840;2023-02-22T06:15:55;7.90;52.60
21807;DHT22;11065;50.786;7.840;2023-02-22T06:18:24;7.90;52.50
21807;DHT22;11065;50.786;7.840;2023-02-22T06:20:53;7.90;52.50
21807;DHT22;11065;50.786;7.840;2023-02-22T06:23:22;7.90;52.40
21807;DHT22;11065;50.786;7.840;2023-02-22T06:25:50;7.90;52.40
21807;DHT22;11065;50.786;7.840;2023-02-22T06:28:18;7.90;52.40
21807;DHT22;11065;50.786;7.840;2023-02-22T06:30:46;7.90;52.80
21807;DHT22;11065;50.786;7.840;2023-02-22T06:33:14;7.90;52.40
21807;DHT22;11065;50.786;7.840;2023-02-22T06:35:44;7.90;52.40
21807;DHT22;11065;50.786;7.840;2023-02-22T06:38:21;7.90;52.50
21807;DHT22;11065;50.786;7.840;2023-02-22T06:40:49;7.90;52.60
21807;DHT22;11065;50.786;7.840;2023-02-22T06:43:17;8.00;52.50
21807;DHT22;11065;50.786;7.840;2023-02-22T06:45:46;7.90;52.40
21807;DHT22;11065;50.786;7.840;2023-02-22T06:48:14;8.00;52.40
21807;DHT22;11065;50.786;7.840;2023-02-22T06:50:42;8.00;52.50
21807;DHT22;11065;50.786;7.840;2023-02-22T06:53:10;8.00;53.00
21807;DHT22;11065;50.786;7.840;2023-02-22T06:55:40;8.00;52.60
21807;DHT22;11065;50.786;7.840;2023-02-22T06:58:08;8.00;52.60
21807;DHT22;11065;50.786;7.840;2023-02-22T07:00:36;8.00;52.60
21807;DHT22;11065;50.786;7.840;2023-02-22T07:03:04;8.00;52.60
21807;DHT22;11065;50.786;7.840;2023-02-22T07:05:32;8.10;52.70
21807;DHT22;11065;50.786;7.840;2023-02-22T07:08:02;8.10;52.70
21807;DHT22;11065;50.786;7.840;2023-02-22T07:10:32;8.10;52.80
21807;DHT22;11065;50.786;7.840;2023-02-22T07:13:02;8.10;52.90
21807;DHT22;11065;50.786;7.840;2023-02-22T07:15:32;8.10;52.90
21807;DHT22;11065;50.786;7.840;2023-02-22T07:18:01;8.20;53.00
21807;DHT22;11065;50.786;7.840;2023-02-22T07:20:30;8.20;53.00
21807;DHT22;11065;50.786;7.840;2023-02-22T07:22:59;8.20;53.00
21807;DHT22;11065;50.786;7.840;2023-02-22T07:25:27;8.30;53.00
21807;DHT22;11065;50.786;7.840;2023-02-22T07:27:55;8.30;52.90
21807;DHT22;11065;50.786;7.840;2023-02-22T07:30:26;8.30;53.00
21807;DHT22;11065;50.786;7.840;2023-02-22T07:32:58;8.30;53.10
21807;DHT22;11065;50.786;7.840;2023-02-22T07:35:28;8.30;53.10
21807;DHT22;11065;50.786;7.840;2023-02-22T07:37:56;8.40;53.20
21807;DHT22;11065;50.786;7.840;2023-02-22T07:40:26;8.40;53.10
21807;DHT22;11065;50.786;7.840;2023-02-22T07:42:57;8.40;53.00
21807;DHT22;11065;50.786;7.840;2023-02-22T07:45:28;8.40;53.00
21807;DHT22;11065;50.786;7.840;2023-02-22T07:47:58;8.40;53.00
21807;DHT22;11065;50.786;7.840;2023-02-22T07:50:28;8.50;53.10
21807;DHT22;11065;50.786;7.840;2023-02-22T07:52:58;8.50;53.20
21807;DHT22;11065;50.786;7.840;2023-02-22T07:55:29;8.50;53.70
21807;DHT22;11065;50.786;7.840;2023-02-22T07:57:58;8.60;53.20
21807;DHT22;11065;50.786;7.840;2023-02-22T08:00:29;8.60;53.20
21807;DHT22;11065;50.786;7.840;2023-02-22T08:02:59;8.60;53.20
21807;DHT22;11065;50.786;7.840;2023-02-22T08:05:29;8.70;53.30
21807;DHT22;11065;50.786;7.840;2023-02-22T08:07:57;8.60;53.30
21807;DHT22;11065;50.786;7.840;2023-02-22T08:10:25;8.70;53.40
21807;DHT22;11065;50.786;7.840;2023-02-22T08:12:54;8.70;53.30
21807;DHT22;11065;50.786;7.840;2023-02-22T08:15:24;8.70;53.30
21807;DHT22;11065;50.786;7.840;2023-02-22T08:17:54;8.70;53.30
21807;DHT22;11065;50.786;7.840;2023-02-22T08:20:22;8.80;53.40
21807;DHT22;11065;50.786;7.840;2023-02-22T08:22:51;8.80;53.40
21807;DHT22;11065;50.786;7.840;2023-02-22T08:25:20;8.90;53.40
21807;DHT22;11065;50.786;7.840;2023-02-22T08:27:48;9.00;53.50
21807;DHT22;11065;50.786;7.840;2023-02-22T08:30:20;9.00;53.50
21807;DHT22;11065;50.786;7.840;2023-02-22T08:32:49;9.10;53.40
21807;DHT22;11065;50.786;7.840;2023-02-22T08:35:20;9.10;53.40
21807;DHT22;11065;50.786;7.840;2023-02-22T08:37:50;9.20;53.40
21807;DHT22;11065;50.786;7.840;2023-02-22T08:40:20;9.30;53.40
21807;DHT22;11065;50.786;7.840;2023-02-22T08:42:49;9.30;53.30
21807;DHT22;11065;50.786;7.840;2023-02-22T08:45:17;9.30;53.40
21807;DHT22;11065;50.786;7.840;2023-02-22T08:47:45;9.40;53.40
21807;DHT22;11065;50.786;7.840;2023-02-22T08:50:16;9.50;53.50
21807;DHT22;11065;50.786;7.840;2023-02-22T08:52:46;9.60;53.50
21807;DHT22;11065;50.786;7.840;2023-02-22T08:55:14;9.60;53.40
21807;DHT22;11065;50.786;7.840;2023-02-22T08:57:43;9.70;53.40
21807;DHT22;11065;50.786;7.840;2023-02-22T09:00:12;9.70;53.40
21807;DHT22;11065;50.786;7.840;2023-02-22T09:02:41;9.80;53.50
21807;DHT22;11065;50.786;7.840;2023-02-22T09:05:09;9.90;53.60
21807;DHT22;11065;50.786;7.840;2023-02-22T09:07:40;10.00;53.50
21807;DHT22;11065;50.786;7.840;2023-02-22T09:10:12;10.00;53.50
21807;DHT22;11065;50.786;7.840;2023-02-22T09:12:41;10.10;53.50
21807;DHT22;11065;50.786;7.840;2023-02-22T09:15:10;10.20;53.40
21807;DHT22;11065;50.786;7.840;2023-02-22T09:17:38;10.30;53.30
21807;DHT22;11065;50.786;7.840;2023-02-22T09:20:07;10.40;53.40
21807;DHT22;11065;50.786;7.840;2023-02-22T09:22:43;10.50;53.30
21807;DHT22;11065;50.786;7.840;2023-02-22T09:25:14;10.50;53.30
21807;DHT22;11065;50.786;7.840;2023-02-22T09:27:46;10.50;53.30
21807;DHT22;11065;50.786;7.840;2023-02-22T09:30:16;10.60;53.40
21807;DHT22;11065;50.786;7.840;2023-02-22T09:32:45;10.70;53.50
21807;DHT22;11065;50.786;7.840;2023-02-22T09:35:14;10.80;54.00
21807;DHT22;11065;50.786;7.840;2023-02-22T09:37:42;10.90;53.60
21807;DHT22;11065;50.786;7.840;2023-02-22T09:40:16;11.10;53.90
21807;DHT22;11065;50.786;7.840;2023-02-22T09:42:59;11.30;54.10
21807;DHT22;11065;50.786;7.840;2023-02-22T09:45:31;11.50;54.20
21807;DHT22;11065;50.786;7.840;2023-02-22T09:48:05;11.80;54.20
21807;DHT22;11065;50.786;7.840;2023-02-22T09:50:49;12.10;54.30
21807;DHT22;11065;50.786;7.840;2023-02-22T09:53:22;12.40;54.20
21807;DHT22;11065;50.786;7.840;2023-02-22T09:55:59;12.80;53.90
21807;DHT22;11065;50.786;7.840;2023-02-22T09:58:31;13.20;54.50
21807;DHT22;11065;50.786;7.840;2023-02-22T10:01:17;13.50;54.00
21807;DHT22;11065;50.786;7.840;2023-02-22T10:03:53;14.00;53.50
21807;DHT22;11065;50.786;7.840;2023-02-22T10:06:23;14.30;53.50
21807;DHT22;11065;50.786;7.840;2023-02-22T10:08:53;14.70;53.30
21807;DHT22;11065;50.786;7.840;2023-02-22T10:11:34;15.00;53.00
21807;DHT22;11065;50.786;7.840;2023-02-22T10:14:30;15.30;52.40
21807;DHT22;11065;50.786;7.840;2023-02-22T10:17:05;15.60;52.20
21807;DHT22;11065;50.786;7.840;2023-02-22T10:19:42;16.00;52.20
21807;DHT22;11065;50.786;7.840;2023-02-22T10:22:31;16.30;52.00
21807;DHT22;11065;50.786;7.840;2023-02-22T10:25:07;16.60;51.70
21807;DHT22;11065;50.786;7.840;2023-02-22T10:27:44;16.90;51.80
21807;DHT22;11065;50.786;7.840;2023-02-22T10:30:18;17.20;51.40
21807;DHT22;11065;50.786;7.840;2023-02-22T10:32:55;17.50;50.70
21807;DHT22;11065;50.786;7.840;2023-02-22T10:35:28;17.80;50.60
21807;DHT22;11065;50.786;7.840;2023-02-22T10:37:58;18.10;50.70
21807;DHT22;11065;50.786;7.840;2023-02-22T10:40:28;18.40;50.60
21807;DHT22;11065;50.786;7.840;2023-02-22T10:43:02;18.70;50.80
21807;DHT22;11065;50.786;7.840;2023-02-22T10:45:33;19.10;51.00
21807;DHT22;11065;50.786;7.840;2023-02-22T10:48:04;19.50;50.30
21807;DHT22;11065;50.786;7.840;2023-02-22T10:50:39;19.90;48.80
21807;DHT22;11065;50.786;7.840;2023-02-22T10:53:09;20.20;48.50
21807;DHT22;11065;50.786;7.840;2023-02-22T10:56:05;20.50;48.40
21807;DHT22;11065;50.786;7.840;2023-02-22T10:58:47;20.70;47.10
21807;DHT22;11065;50.786;7.840;2023-02-22T11:01:18;20.90;46.90
21807;DHT22;11065;50.786;7.840;2023-02-22T11:03:59;20.90;46.50
21807;DHT22;11065;50.786;7.840;2023-02-22T11:06:28;20.90;46.10
21807;DHT22;11065;50.786;7.840;2023-02-22T11:09:08;20.80;46.40
21807;DHT22;11065;50.786;7.840;2023-02-22T11:11:38;20.70;45.50
21807;DHT22;11065;50.786;7.840;2023-02-22T11:14:09;20.60;45.80
21807;DHT22;11065;50.786;7.840;2023-02-22T11:16:40;20.40;45.60
21807;DHT22;11065;50.786;7.840;2023-02-22T11:19:17;20.30;46.00
21807;DHT22;11065;50.786;7.840;2023-02-22T11:21:46;20.30;46.10
21807;DHT22;11065;50.786;7.840;2023-02-22T11:24:18;20.30;46.80
21807;DHT22;11065;50.786;7.840;2023-02-22T11:26:49;20.50;47.20
21807;DHT22;11065;50.786;7.840;2023-02-22T11:29:22;20.70;47.40
21807;DHT22;11065;50.786;7.840;2023-02-22T11:31:52;21.00;47.30
21807;DHT22;11065;50.786;7.840;2023-02-22T11:34:28;21.30;47.30
21807;DHT22;11065;50.786;7.840;2023-02-22T11:37:22;21.70;46.10
21807;DHT22;11065;50.786;7.840;2023-02-22T11:40:07;22.00;45.90
21807;DHT22;11065;50.786;7.840;2023-02-22T11:42:38;22.30;45.80
21807;DHT22;11065;50.786;7.840;2023-02-22T11:45:10;22.50;46.40
21807;DHT22;11065;50.786;7.840;2023-02-22T11:47:53;22.80;46.00
21807;DHT22;11065;50.786;7.840;2023-02-22T11:50:26;23.20;45.20
21807;DHT22;11065;50.786;7.840;2023-02-22T11:53:24;23.40;45.70
21807;DHT22;11065;50.786;7.840;2023-02-22T11:56:06;23.70;45.00
21807;DHT22;11065;50.786;7.840;2023-02-22T11:58:42;24.00;45.00
21807;DHT22;11065;50.786;7.840;2023-02-22T12:01:22;24.30;44.70
21807;DHT22;11065;50.786;7.840;2023-02-22T12:04:29;24.60;44.10
21807;DHT22;11065;50.786;7.840;2023-02-22T12:07:13;24.80;43.00
21807;DHT22;11065;50.786;7.840;2023-02-22T12:09:49;24.90;40.30
21807;DHT22;11065;50.786;7.840;2023-02-22T12:12:28;25.00;41.20
21807;DHT22;11065;50.786;7.840;2023-02-22T12:15:03;25.00;40.50
21807;DHT22;11065;50.786;7.840;2023-02-22T12:17:45;25.00;40.90
21807;DHT22;11065;50.786;7.840;2023-02-22T12:20:36;25.00;40.60
21807;DHT22;11065;50.786;7.840;2023-02-22T12:23:14;25.00;41.00
21807;DHT22;11065;50.786;7.840;2023-02-22T12:25:53;25.00;40.60
21807;DHT22;11065;50.786;7.840;2023-02-22T12:28:32;25.20;40.40
21807;DHT22;11065;50.786;7.840;2023-02-22T12:31:20;25.10;39.80
21807;DHT22;11065;50.786;7.840;2023-02-22T12:33:58;25.10;39.40
21807;DHT22;11065;50.786;7.840;2023-02-22T12:36:33;25.00;39.10
21807;DHT22;11065;50.786;7.840;2023-02-22T12:39:10;25.00;39.40
21807;DHT22;11065;50.786;7.840;2023-02-22T12:41:53;25.00;39.50
21807;DHT22;11065;50.786;7.840;2023-02-22T12:44:24;25.00;39.80
21807;DHT22;11065;50.786;7.840;2023-02-22T12:46:56;25.00;39.70
21807;DHT22;11065;50.786;7.840;2023-02-22T12:49:32;25.00;38.80
21807;DHT22;11065;50.786;7.840;2023-02-22T12:52:08;25.00;38.40
21807;DHT22;11065;50.786;7.840;2023-02-22T12:54:52;24.80;38.30
21807;DHT22;11065;50.786;7.840;2023-02-22T12:57:26;24.60;38.20
21807;DHT22;11065;50.786;7.840;2023-02-22T13:00:01;24.30;37.60
21807;DHT22;11065;50.786;7.840;2023-02-22T13:02:33;24.00;37.20
21807;DHT22;11065;50.786;7.840;2023-02-22T13:05:05;23.70;37.30
21807;DHT22;11065;50.786;7.840;2023-02-22T13:07:46;23.40;37.00
21807;DHT22;11065;50.786;7.840;2023-02-22T13:10:34;23.20;37.40
21807;DHT22;11065;50.786;7.840;2023-02-22T13:13:12;22.90;37.00
21807;DHT22;11065;50.786;7.840;2023-02-22T13:15:49;22.70;37.50
21807;DHT22;11065;50.786;7.840;2023-02-22T13:18:24;22.50;38.00
21807;DHT22;11065;50.786;7.840;2023-02-22T13:21:01;22.30;38.10
21807;DHT22;11065;50.786;7.840;2023-02-22T13:23:38;22.20;38.30
21807;DHT22;11065;50.786;7.840;2023-02-22T13:26:13;22.10;38.40
21807;DHT22;11065;50.786;7.840;2023-02-22T13:28:48;22.00;38.50
21807;DHT22;11065;50.786;7.840;2023-02-22T13:31:32;22.00;38.70
21807;DHT22;11065;50.786;7.840;2023-02-22T13:34:19;21.90;38.60
21807;DHT22;11065;50.786;7.840;2023-02-22T13:37:01;21.90;38.60
21807;DHT22;11065;50.786;7.840;2023-02-22T13:39:48;21.80;38.60
21807;DHT22;11065;50.786;7.840;2023-02-22T13:42:32;21.80;38.30
21807;DHT22;11065;50.786;7.840;2023-02-22T13:45:42;21.70;38.10
21807;DHT22;11065;50.786;7.840;2023-02-22T13:48:26;21.60;38.10
21807;DHT22;11065;50.786;7.840;2023-02-22T13:51:08;21.50;38.30
21807;DHT22;11065;50.786;7.840;2023-02-22T13:53:46;21.40;38.60
21807;DHT22;11065;50.786;7.840;2023-02-22T13:56:18;21.30;38.70
21807;DHT22;11065;50.786;7.840;2023-02-22T13:58:49;21.20;38.70
21807;DHT22;11065;50.786;7.840;2023-02-22T14:01:37;21.10;38.80
21807;DHT22;11065;50.786;7.840;2023-02-22T14:04:38;21.00;38.40
21807;DHT22;11065;50.786;7.840;2023-02-22T14:10:48;20.80;38.70
21807;DHT22;11065;50.786;7.840;2023-02-22T14:13:17;20.80;39.10
21807;DHT22;11065;50.786;7.840;2023-02-22T14:16:21;20.70;39.40
21807;DHT22;11065;50.786;7.840;2023-02-22T14:19:00;20.70;39.30
21807;DHT22;11065;50.786;7.840;2023-02-22T14:21:29;20.70;39.50
21807;DHT22;11065;50.786;7.840;2023-02-22T14:24:06;20.70;39.80
21807;DHT22;11065;50.786;7.840;2023-02-22T14:26:37;20.70;39.60
21807;DHT22;11065;50.786;7.840;2023-02-22T14:29:15;20.70;39.70
21807;DHT22;11065;50.786;7.840;2023-02-22T14:31:59;20.70;39.60
21807;DHT22;11065;50.786;7.840;2023-02-22T14:34:44;20.70;39.60
21807;DHT22;11065;50.786;7.840;2023-02-22T14:37:17;20.70;39.50
21807;DHT22;11065;50.786;7.840;2023-02-22T14:39:48;20.70;39.70
21807;DHT22;11065;50.786;7.840;2023-02-22T14:42:23;20.60;39.20
21807;DHT22;11065;50.786;7.840;2023-02-22T14:45:00;20.60;39.20
21807;DHT22;11065;50.786;7.840;2023-02-22T14:47:35;20.50;39.10
21807;DHT22;11065;50.786;7.840;2023-02-22T14:50:11;20.40;38.90
21807;DHT22;11065;50.786;7.840;2023-02-22T14:52:43;20.30;39.00
21807;DHT22;11065;50.786;7.840;2023-02-22T14:55:17;20.20;38.90
21807;DHT22;11065;50.786;7.840;2023-02-22T14:57:54;20.10;39.30
21807;DHT22;11065;50.786;7.840;2023-02-22T15:00:28;20.00;39.30
21807;DHT22;11065;50.786;7.840;2023-02-22T15:03:03;19.90;39.40
21807;DHT22;11065;50.786;7.840;2023-02-22T15:05:35;19.90;39.50
21807;DHT22;11065;50.786;7.840;2023-02-22T15:08:06;19.90;39.50
21807;DHT22;11065;50.786;7.840;2023-02-22T15:10:40;19.80;39.50
21807;DHT22;11065;50.786;7.840;2023-02-22T15:13:17;19.70;39.50
21807;DHT22;11065;50.786;7.840;2023-02-22T15:15:46;19.60;39.30
21807;DHT22;11065;50.786;7.840;2023-02-22T15:18:21;19.60;39.50
21807;DHT22;11065;50.786;7.840;2023-02-22T15:20:52;19.50;39.60
21807;DHT22;11065;50.786;7.840;2023-02-22T15:23:28;19.50;39.70
21807;DHT22;11065;50.786;7.840;2023-02-22T15:25:59;19.40;39.70
21807;DHT22;11065;50.786;7.840;2023-02-22T15:28:28;19.30;39.70
21807;DHT22;11065;50.786;7.840;2023-02-22T15:31:15;19.20;39.70
21807;DHT22;11065;50.786;7.840;2023-02-22T15:33:44;19.10;39.50
21807;DHT22;11065;50.786;7.840;2023-02-22T15:36:14;19.10;39.70
21807;DHT22;11065;50.786;7.840;2023-02-22T15:38:47;19.00;40.00
21807;DHT22;11065;50.786;7.840;2023-02-22T15:41:21;18.90;40.10
21807;DHT22;11065;50.786;7.840;2023-02-22T15:44:03;18.90;40.20
21807;DHT22;11065;50.786;7.840;2023-02-22T15:46:48;18.80;40.20
21807;DHT22;11065;50.786;7.840;2023-02-22T15:49:20;18.80;40.80
21807;DHT22;11065;50.786;7.840;2023-02-22T15:52:04;18.80;40.30
21807;DHT22;11065;50.786;7.840;2023-02-22T15:54:42;18.70;40.40
21807;DHT22;11065;50.786;7.840;2023-02-22T15:57:16;18.70;40.50
21807;DHT22;11065;50.786;7.840;2023-02-22T15:59:49;18.60;40.40
21807;DHT22;11065;50.786;7.840;2023-02-22T16:05:10;18.40;40.60
21807;DHT22;11065;50.786;7.840;2023-02-22T16:07:41;18.40;40.60
21807;DHT22;11065;50.786;7.840;2023-02-22T16:10:27;18.30;40.60
21807;DHT22;11065;50.786;7.840;2023-02-22T16:13:08;18.20;40.70
21807;DHT22;11065;50.786;7.840;2023-02-22T16:15:56;18.20;40.80
21807;DHT22;11065;50.786;7.840;2023-02-22T16:18:30;18.10;40.90
21807;DHT22;11065;50.786;7.840;2023-02-22T16:21:01;18.00;41.10
21807;DHT22;11065;50.786;7.840;2023-02-22T16:23:30;17.90;41.20
21807;DHT22;11065;50.786;7.840;2023-02-22T16:26:14;17.80;41.30
21807;DHT22;11065;50.786;7.840;2023-02-22T16:28:50;17.80;41.50
21807;DHT22;11065;50.786;7.840;2023-02-22T16:31:21;17.70;41.60
21807;DHT22;11065;50.786;7.840;2023-02-22T16:33:51;17.60;41.60
21807;DHT22;11065;50.786;7.840;2023-02-22T16:36:23;17.50;41.60